createdAt,value
2018-09-27T00:00:26.927Z,4.10
2018-09-27T00:02:55.255Z,3.70
2018-09-27T00:05:23.568Z,3.60
2018-09-27T00:07:51.928Z,3.87
2018-09-27T00:10:20.242Z,4.40
2018-09-27T00:12:48.594Z,3.80
2018-09-27T00:15:16.899Z,3.97
2018-09-27T00:17:45.223Z,4.30
2018-09-27T00:20:13.558Z,4.23
2018-09-27T00:22:42.222Z,3.80
2018-09-27T00:25:10.533Z,3.60
2018-09-27T00:27:38.878Z,4.60
2018-09-27T00:30:07.239Z,3.93
2018-09-27T00:32:35.571Z,3.73
2018-09-27T00:35:03.916Z,4.13
2018-09-27T00:37:32.219Z,3.73
2018-09-27T00:40:00.593Z,3.80
2018-09-27T00:42:28.907Z,3.70
2018-09-27T00:44:57.241Z,4.10
2018-09-27T00:47:25.588Z,4.03
2018-09-27T00:49:53.923Z,4.10
2018-09-27T00:52:22.220Z,4.00
2018-09-27T00:54:50.547Z,4.43
2018-09-27T00:57:18.855Z,4.10
2018-09-27T00:59:47.232Z,4.40
2018-09-27T01:02:15.544Z,4.37
2018-09-27T01:04:43.860Z,4.20
2018-09-27T01:07:12.246Z,4.07
2018-09-27T01:09:40.591Z,3.73
2018-09-27T01:12:08.926Z,4.03
2018-09-27T01:14:37.245Z,4.53
2018-09-27T01:17:05.538Z,3.90
2018-09-27T01:19:34.051Z,4.13
2018-09-27T01:22:02.355Z,4.40
2018-09-27T01:24:30.679Z,4.10
2018-09-27T01:26:58.983Z,4.70
2018-09-27T01:29:27.300Z,3.70
2018-09-27T01:31:55.594Z,4.03
2018-09-27T01:34:24.086Z,4.00
2018-09-27T01:36:52.395Z,4.30
2018-09-27T01:39:20.743Z,4.27
2018-09-27T01:41:49.221Z,4.30
2018-09-27T01:44:17.598Z,4.47
2018-09-27T01:46:45.915Z,4.30
2018-09-27T01:49:14.246Z,4.40
2018-09-27T01:51:42.583Z,4.57
2018-09-27T01:54:10.931Z,4.50
2018-09-27T01:56:39.235Z,4.70
2018-09-27T01:59:07.634Z,4.80
2018-09-27T02:01:35.954Z,4.80
2018-09-27T02:04:04.307Z,4.70
2018-09-27T02:06:32.627Z,4.23
2018-09-27T02:09:00.961Z,4.67
2018-09-27T02:11:29.262Z,5.17
2018-09-27T02:13:57.600Z,5.03
2018-09-27T02:16:25.900Z,5.17
2018-09-27T02:18:54.231Z,5.30
2018-09-27T02:21:22.627Z,5.20
2018-09-27T02:23:50.991Z,5.40
2018-09-27T02:26:19.284Z,5.30
2018-09-27T02:28:47.628Z,5.60
2018-09-27T02:31:15.962Z,5.63
2018-09-27T02:33:44.367Z,5.43
2018-09-27T02:36:12.720Z,5.30
2018-09-27T02:38:41.079Z,5.20
2018-09-27T02:41:09.440Z,5.40
2018-09-27T02:43:37.823Z,5.00
2018-09-27T02:46:06.188Z,5.70
2018-09-27T02:48:34.523Z,5.43
2018-09-27T02:51:02.880Z,5.37
2018-09-27T02:53:31.222Z,5.80
2018-09-27T02:55:59.578Z,5.60
2018-09-27T02:58:27.910Z,5.47
2018-09-27T03:00:56.432Z,5.80
2018-09-27T03:03:24.769Z,5.20
2018-09-27T03:05:53.124Z,5.33
2018-09-27T03:08:21.460Z,6.00
2018-09-27T03:10:49.824Z,5.83
2018-09-27T03:13:18.181Z,5.73
2018-09-27T03:15:46.562Z,5.43
2018-09-27T03:18:15.169Z,5.53
2018-09-27T03:20:43.568Z,5.33
2018-09-27T03:23:11.917Z,5.13
2018-09-27T03:25:40.281Z,5.67
2018-09-27T03:28:08.616Z,5.33
2018-09-27T03:30:36.991Z,6.10
2018-09-27T03:33:05.341Z,5.70
2018-09-27T03:35:33.863Z,5.47
2018-09-27T03:38:02.197Z,5.70
2018-09-27T03:40:30.585Z,5.33
2018-09-27T03:42:58.934Z,5.40
2018-09-27T03:45:27.309Z,5.73
2018-09-27T03:47:55.663Z,5.73
2018-09-27T03:50:24.015Z,5.80
2018-09-27T03:52:52.354Z,4.73
2018-09-27T03:55:20.729Z,4.77
2018-09-27T03:57:49.085Z,5.40
2018-09-27T04:00:17.447Z,5.67
2018-09-27T04:02:45.902Z,5.40
2018-09-27T04:05:15.147Z,5.73
2018-09-27T04:07:43.630Z,5.57
2018-09-27T04:10:11.988Z,5.83
2018-09-27T04:12:40.394Z,6.10
2018-09-27T04:15:08.787Z,5.53
2018-09-27T04:17:37.130Z,5.47
2018-09-27T04:20:06.036Z,5.57
2018-09-27T04:22:34.359Z,5.87
2018-09-27T04:25:02.900Z,5.50
2018-09-27T04:27:31.304Z,5.37
2018-09-27T04:29:59.755Z,5.80
2018-09-27T04:32:28.109Z,5.87
2018-09-27T04:34:56.476Z,5.60
2018-09-27T04:37:24.840Z,5.47
2018-09-27T04:39:53.244Z,5.20
2018-09-27T04:42:21.570Z,6.33
2018-09-27T04:44:49.917Z,5.70
2018-09-27T04:47:18.281Z,5.87
2018-09-27T04:49:46.631Z,6.20
2018-09-27T04:52:15.056Z,5.60
2018-09-27T04:54:43.391Z,5.67
2018-09-27T04:57:11.792Z,5.90
2018-09-27T04:59:40.227Z,5.53
2018-09-27T05:02:08.615Z,6.10
2018-09-27T05:04:36.957Z,5.27
2018-09-27T05:07:05.319Z,5.40
2018-09-27T05:09:33.701Z,5.70
2018-09-27T05:12:02.047Z,5.77
2018-09-27T05:14:30.387Z,5.53
2018-09-27T05:16:58.774Z,6.50
2018-09-27T05:19:27.116Z,5.63
2018-09-27T05:21:55.483Z,5.70
2018-09-27T05:24:23.919Z,5.70
2018-09-27T05:26:52.447Z,5.63
2018-09-27T05:29:20.796Z,5.80
2018-09-27T05:31:49.164Z,6.13
2018-09-27T05:34:17.510Z,6.00
2018-09-27T05:36:45.872Z,6.10
2018-09-27T05:39:14.219Z,6.07
2018-09-27T05:41:42.693Z,5.93
2018-09-27T05:44:11.036Z,6.30
2018-09-27T05:46:39.673Z,6.30
2018-09-27T05:49:08.109Z,6.50
2018-09-27T05:51:36.512Z,5.70
2018-09-27T05:54:04.866Z,6.00
2018-09-27T05:56:33.236Z,6.10
2018-09-27T05:59:01.600Z,5.53
2018-09-27T06:01:30.004Z,5.70
2018-09-27T06:03:58.402Z,6.10
2018-09-27T06:06:29.342Z,6.03
2018-09-27T06:08:58.572Z,5.87
2018-09-27T06:11:27.121Z,4.83
2018-09-27T06:13:55.471Z,5.70
2018-09-27T06:16:23.875Z,6.03
2018-09-27T06:18:54.508Z,5.73
2018-09-27T06:21:22.942Z,5.30
2018-09-27T06:23:51.383Z,5.70
2018-09-27T06:26:19.741Z,5.40
2018-09-27T06:28:48.121Z,6.10
2018-09-27T06:31:16.463Z,5.10
2018-09-27T06:33:44.831Z,5.37
2018-09-27T06:36:13.178Z,5.67
2018-09-27T06:38:41.590Z,5.20
2018-09-27T06:41:10.056Z,5.80
2018-09-27T06:43:38.524Z,5.87
2018-09-27T06:46:07.142Z,6.33
2018-09-27T06:48:35.589Z,5.47
2018-09-27T06:51:03.926Z,5.77
2018-09-27T06:53:32.283Z,5.80
2018-09-27T06:56:00.747Z,5.17
2018-09-27T06:58:29.050Z,6.50
2018-09-27T07:00:57.482Z,5.70
2018-09-27T07:03:25.924Z,5.77
2018-09-27T07:05:54.310Z,5.90
2018-09-27T07:08:22.687Z,6.17
2018-09-27T07:10:51.158Z,5.80
2018-09-27T07:13:19.663Z,5.80
2018-09-27T07:15:48.032Z,6.13
2018-09-27T07:18:16.382Z,6.30
2018-09-27T07:20:44.741Z,6.27
2018-09-27T07:23:13.128Z,6.03
2018-09-27T07:25:42.090Z,5.67
2018-09-27T07:28:10.565Z,6.27
2018-09-27T07:30:38.966Z,5.90
2018-09-27T07:33:07.324Z,5.97
2018-09-27T07:35:35.735Z,5.70
2018-09-27T07:38:04.108Z,6.57
2018-09-27T07:40:32.467Z,6.33
2018-09-27T07:43:00.845Z,5.87
2018-09-27T07:45:29.204Z,5.83
2018-09-27T07:47:57.640Z,6.07
2018-09-27T07:50:26.076Z,6.00
2018-09-27T07:52:54.514Z,5.97
2018-09-27T07:55:22.855Z,6.17
2018-09-27T07:57:51.255Z,5.70
2018-09-27T08:00:19.604Z,6.30
2018-09-27T08:02:47.982Z,6.40
2018-09-27T08:05:16.361Z,6.43
2018-09-27T08:07:44.719Z,6.20
2018-09-27T08:10:13.093Z,5.80
2018-09-27T08:12:41.460Z,6.13
2018-09-27T08:15:09.991Z,6.23
2018-09-27T08:17:38.353Z,6.50
2018-09-27T08:20:06.836Z,6.30
2018-09-27T08:22:35.632Z,5.77
2018-09-27T08:25:04.024Z,6.07
2018-09-27T08:27:32.448Z,6.50
2018-09-27T08:30:00.811Z,6.27
2018-09-27T08:32:29.200Z,6.20
2018-09-27T08:34:57.549Z,6.20
2018-09-27T08:37:25.968Z,6.77
2018-09-27T08:39:54.367Z,6.70
2018-09-27T08:42:22.723Z,7.03
2018-09-27T08:44:51.285Z,6.50
2018-09-27T08:47:19.522Z,5.67
2018-09-27T08:49:48.020Z,6.73
2018-09-27T08:52:16.375Z,7.30
2018-09-27T08:54:44.802Z,6.70
2018-09-27T08:57:13.247Z,6.60
2018-09-27T08:59:41.633Z,6.50
2018-09-27T09:02:10.112Z,6.63
2018-09-27T09:04:38.488Z,7.10
2018-09-27T09:07:06.655Z,6.97
2018-09-27T09:09:35.132Z,6.30
2018-09-27T09:12:03.611Z,7.03
2018-09-27T09:14:32.089Z,7.50
2018-09-27T09:17:00.623Z,7.17
2018-09-27T09:19:28.982Z,6.97
2018-09-27T09:21:57.331Z,7.27
2018-09-27T09:24:27.461Z,6.93
2018-09-27T09:26:55.805Z,6.90
2018-09-27T09:29:24.263Z,6.53
2018-09-27T09:31:52.688Z,6.70
2018-09-27T09:34:21.055Z,7.43
2018-09-27T09:36:49.395Z,7.60
2018-09-27T09:39:18.084Z,7.70
2018-09-27T09:41:46.541Z,7.60
2018-09-27T09:44:14.928Z,6.50
2018-09-27T09:46:43.286Z,7.00
2018-09-27T09:49:11.648Z,7.27
2018-09-27T09:51:40.002Z,6.83
2018-09-27T09:54:08.367Z,7.17
2018-09-27T09:56:36.760Z,7.20
2018-09-27T09:59:05.202Z,6.53
2018-09-27T10:01:33.551Z,6.67
2018-09-27T10:04:01.984Z,6.63
2018-09-27T10:06:30.359Z,6.93
2018-09-27T10:08:58.744Z,6.17
2018-09-27T10:11:27.099Z,6.37
2018-09-27T10:13:55.482Z,6.23
2018-09-27T10:16:23.858Z,6.57
2018-09-27T10:18:52.205Z,6.27
2018-09-27T10:21:20.603Z,5.67
2018-09-27T10:23:48.967Z,5.83
2018-09-27T10:26:17.377Z,5.37
2018-09-27T10:28:45.781Z,5.33
2018-09-27T10:31:14.208Z,5.50
2018-09-27T10:33:42.600Z,5.00
2018-09-27T10:36:10.962Z,4.70
2018-09-27T10:38:39.419Z,4.30
2018-09-27T10:41:08.184Z,4.30
2018-09-27T10:43:36.639Z,4.53
2018-09-27T10:46:05.215Z,4.70
2018-09-27T10:48:33.633Z,4.73
2018-09-27T10:51:02.239Z,4.20
2018-09-27T10:53:30.634Z,3.90
2018-09-27T10:55:59.011Z,3.27
2018-09-27T10:58:27.463Z,3.50
2018-09-27T11:00:55.841Z,3.57
2018-09-27T11:03:24.238Z,3.20
2018-09-27T11:05:52.603Z,3.70
2018-09-27T11:08:20.960Z,3.37
2018-09-27T11:10:49.347Z,3.60
2018-09-27T11:13:17.739Z,3.40
2018-09-27T11:15:46.112Z,3.50
2018-09-27T11:18:14.480Z,3.63
2018-09-27T11:20:42.863Z,3.43
2018-09-27T11:23:11.227Z,3.40
2018-09-27T11:25:40.865Z,3.40
2018-09-27T11:28:09.386Z,3.40
2018-09-27T11:30:37.735Z,3.30
2018-09-27T11:33:06.185Z,3.03
2018-09-27T11:35:34.528Z,3.00
2018-09-27T11:38:02.891Z,3.80
2018-09-27T11:40:31.295Z,2.90
2018-09-27T11:42:59.637Z,3.07
2018-09-27T11:45:27.991Z,2.83
2018-09-27T11:47:56.364Z,2.97
2018-09-27T11:50:24.716Z,2.80
2018-09-27T11:52:53.083Z,2.70
2018-09-27T11:55:21.447Z,2.60
2018-09-27T11:57:49.821Z,2.70
2018-09-27T12:00:18.175Z,2.60
2018-09-27T12:02:46.572Z,2.77
2018-09-27T12:05:14.952Z,2.30
2018-09-27T12:07:43.426Z,2.30
2018-09-27T12:10:11.727Z,2.00
2018-09-27T12:12:40.105Z,2.17
2018-09-27T12:15:08.630Z,2.30
2018-09-27T12:17:37.047Z,2.47
2018-09-27T12:20:05.572Z,2.33
2018-09-27T12:22:33.900Z,2.07
2018-09-27T12:25:02.248Z,2.97
2018-09-27T12:27:30.668Z,2.20
2018-09-27T12:29:59.013Z,2.47
2018-09-27T12:32:27.441Z,2.60
2018-09-27T12:34:55.785Z,2.90
2018-09-27T12:37:24.156Z,2.53
2018-09-27T12:39:52.515Z,2.63
2018-09-27T12:42:20.912Z,2.50
2018-09-27T12:44:49.278Z,3.03
2018-09-27T12:47:17.627Z,3.00
2018-09-27T12:49:46.043Z,2.60
2018-09-27T12:52:14.774Z,2.90
2018-09-27T12:54:42.779Z,3.13
2018-09-27T12:57:11.161Z,3.20
2018-09-27T12:59:39.521Z,3.00
2018-09-27T13:02:07.961Z,3.03
2018-09-27T13:04:36.263Z,3.20
2018-09-27T13:07:04.790Z,3.53
2018-09-27T13:09:33.163Z,3.00
2018-09-27T13:12:01.622Z,2.77
2018-09-27T13:14:30.397Z,2.83
2018-09-27T13:16:58.758Z,2.80
2018-09-27T13:19:27.140Z,2.67
2018-09-27T13:21:55.487Z,2.73
2018-09-27T13:24:24.509Z,3.00
2018-09-27T13:26:52.889Z,2.97
2018-09-27T13:29:21.248Z,2.93
2018-09-27T13:31:49.661Z,2.60
2018-09-27T13:34:17.999Z,2.90
2018-09-27T13:36:46.385Z,2.80
2018-09-27T13:39:14.739Z,2.72
2018-09-27T13:41:43.075Z,2.60
2018-09-27T13:44:11.432Z,2.87
2018-09-27T13:46:39.793Z,2.80
2018-09-27T13:49:08.229Z,2.30
2018-09-27T13:51:36.532Z,2.83
2018-09-27T13:54:04.927Z,2.60
2018-09-27T13:56:33.268Z,2.33
2018-09-27T13:59:01.641Z,2.62
2018-09-27T14:01:29.988Z,2.60
2018-09-27T14:03:58.346Z,2.60
2018-09-27T14:06:26.688Z,2.80
2018-09-27T14:08:55.211Z,2.60
2018-09-27T14:11:23.555Z,2.90
2018-09-27T14:13:52.059Z,2.40
2018-09-27T14:16:20.408Z,2.65
2018-09-27T14:18:48.866Z,2.50
2018-09-27T14:21:17.233Z,2.83
2018-09-27T14:23:45.610Z,2.60
2018-09-27T14:26:13.997Z,2.87
2018-09-27T14:28:42.352Z,2.75
2018-09-27T14:31:10.712Z,3.20
2018-09-27T14:33:39.082Z,3.30
2018-09-27T14:36:07.420Z,3.00
2018-09-27T14:38:35.871Z,3.27
2018-09-27T14:41:04.260Z,2.90
2018-09-27T14:43:32.583Z,2.95
2018-09-27T14:46:00.936Z,3.30
2018-09-27T14:48:29.304Z,3.75
2018-09-27T14:50:57.665Z,3.75
2018-09-27T14:53:26.070Z,3.58
2018-09-27T14:55:54.413Z,3.10
2018-09-27T14:58:22.792Z,3.77
2018-09-27T15:00:51.134Z,4.08
2018-09-27T15:03:19.504Z,3.65
2018-09-27T15:05:47.853Z,3.58
2018-09-27T15:08:16.211Z,3.87
2018-09-27T15:10:45.694Z,3.17
2018-09-27T15:13:14.003Z,3.15
2018-09-27T15:15:42.421Z,3.50
2018-09-27T15:18:10.767Z,3.35
2018-09-27T15:20:39.135Z,3.62
2018-09-27T15:23:07.585Z,3.52
2018-09-27T15:25:35.964Z,3.10
2018-09-27T15:28:04.399Z,3.40
2018-09-27T15:30:32.820Z,3.30
2018-09-27T15:33:01.158Z,3.45
2018-09-27T15:35:29.692Z,3.42
2018-09-27T15:37:58.027Z,3.45
2018-09-27T15:40:26.396Z,3.45
2018-09-27T15:42:54.748Z,3.35
2018-09-27T15:45:23.119Z,3.60
2018-09-27T15:47:51.491Z,3.30
2018-09-27T15:50:19.868Z,3.55
2018-09-27T15:52:48.231Z,3.87
2018-09-27T15:55:16.632Z,3.47
2018-09-27T15:57:44.996Z,3.40
2018-09-27T16:00:13.468Z,3.90
2018-09-27T16:02:41.857Z,3.60
2018-09-27T16:05:10.224Z,3.85
2018-09-27T16:07:38.619Z,3.58
2018-09-27T16:10:07.012Z,3.58
2018-09-27T16:12:35.561Z,3.40
2018-09-27T16:15:03.959Z,3.55
2018-09-27T16:17:32.327Z,3.22
2018-09-27T16:20:00.699Z,3.08
2018-09-27T16:22:29.067Z,3.15
2018-09-27T16:24:57.444Z,3.45
2018-09-27T16:27:25.807Z,3.33
2018-09-27T16:29:54.175Z,3.37
2018-09-27T16:32:22.538Z,3.12
2018-09-27T16:34:51.530Z,2.80
2018-09-27T16:37:19.956Z,3.35
2018-09-27T16:39:48.333Z,2.70
2018-09-27T16:42:16.700Z,2.55
2018-09-27T16:44:45.065Z,2.47
2018-09-27T16:47:13.411Z,2.87
2018-09-27T16:49:41.805Z,2.45
2018-09-27T16:52:10.165Z,2.40
2018-09-27T16:54:38.823Z,2.40
2018-09-27T16:57:07.180Z,2.60
2018-09-27T16:59:37.639Z,3.33
2018-09-27T17:02:06.001Z,2.62
2018-09-27T17:04:34.390Z,3.12
2018-09-27T17:07:02.874Z,2.87
2018-09-27T17:09:31.231Z,2.60
2018-09-27T17:11:59.608Z,3.00
2018-09-27T17:14:27.971Z,2.93
2018-09-27T17:16:56.332Z,2.83
2018-09-27T17:19:24.676Z,3.17
2018-09-27T17:21:53.057Z,2.77
2018-09-27T17:24:21.417Z,2.87
2018-09-27T17:26:49.783Z,2.47
2018-09-27T17:29:18.119Z,3.30
2018-09-27T17:31:46.534Z,3.03
2018-09-27T17:34:14.893Z,3.13
2018-09-27T17:36:43.324Z,3.03
2018-09-27T17:39:11.668Z,3.00
2018-09-27T17:41:40.058Z,2.93
2018-09-27T17:44:08.434Z,3.23
2018-09-27T17:46:37.028Z,2.90
2018-09-27T17:49:05.339Z,2.90
2018-09-27T17:51:33.808Z,3.23
2018-09-27T17:54:02.167Z,2.90
2018-09-27T17:56:30.708Z,3.17
2018-09-27T17:58:59.165Z,3.00
2018-09-27T18:01:27.536Z,3.10
2018-09-27T18:03:55.896Z,2.70
2018-09-27T18:06:24.266Z,3.00
2018-09-27T18:08:52.608Z,3.13
2018-09-27T18:11:20.971Z,3.07
2018-09-27T18:13:49.344Z,2.70
2018-09-27T18:16:17.865Z,2.83
2018-09-27T18:18:46.202Z,3.13
2018-09-27T18:21:14.687Z,3.40
2018-09-27T18:23:43.092Z,2.90
2018-09-27T18:26:11.467Z,3.03
2018-09-27T18:28:39.891Z,3.30
2018-09-27T18:31:08.323Z,3.50
2018-09-27T18:33:36.781Z,3.53
2018-09-27T18:36:05.139Z,3.17
2018-09-27T18:38:33.845Z,3.50
2018-09-27T18:41:02.212Z,3.80
2018-09-27T18:43:30.570Z,3.00
2018-09-27T18:46:00.739Z,3.17
2018-09-27T18:48:29.339Z,3.00
2018-09-27T18:50:59.065Z,3.03
2018-09-27T18:53:28.492Z,3.20
2018-09-27T18:55:56.887Z,3.53
2018-09-27T18:58:25.253Z,3.50
2018-09-27T19:00:53.632Z,3.40
2018-09-27T19:03:22.012Z,3.60
2018-09-27T19:05:50.388Z,3.57
2018-09-27T19:08:18.876Z,3.80
2018-09-27T19:10:47.255Z,3.70
2018-09-27T19:13:15.659Z,4.40
2018-09-27T19:15:44.926Z,3.90
2018-09-27T19:18:13.304Z,3.50
2018-09-27T19:20:41.700Z,3.67
2018-09-27T19:23:10.395Z,3.70
2018-09-27T19:25:38.976Z,3.23
2018-09-27T19:28:07.345Z,3.60
2018-09-27T19:30:35.746Z,3.30
2018-09-27T19:33:04.134Z,3.63
2018-09-27T19:35:32.504Z,3.77
2018-09-27T19:38:00.884Z,3.80
2018-09-27T19:40:29.260Z,3.90
2018-09-27T19:42:57.688Z,3.27
2018-09-27T19:45:26.129Z,3.87
2018-09-27T19:47:54.717Z,3.70
2018-09-27T19:50:23.095Z,3.40
2018-09-27T19:52:51.495Z,3.50
2018-09-27T19:55:19.836Z,3.50
2018-09-27T19:57:48.242Z,3.47
2018-09-27T20:00:16.609Z,3.33
2018-09-27T20:02:45.065Z,3.60
2018-09-27T20:05:13.389Z,3.20
2018-09-27T20:07:41.742Z,3.43
2018-09-27T20:10:10.171Z,2.90
2018-09-27T20:12:38.648Z,3.17
2018-09-27T20:15:07.079Z,3.60
2018-09-27T20:17:35.432Z,3.37
2018-09-27T20:20:03.827Z,3.40
2018-09-27T20:22:32.242Z,4.00
2018-09-27T20:25:00.736Z,3.60
2018-09-27T20:27:29.089Z,3.47
2018-09-27T20:29:57.529Z,3.83
2018-09-27T20:32:25.889Z,3.80
2018-09-27T20:34:54.322Z,3.47
2018-09-27T20:37:22.640Z,3.50
2018-09-27T20:39:51.000Z,3.80
2018-09-27T20:42:19.351Z,3.83
2018-09-27T20:44:48.147Z,4.60
2018-09-27T20:47:16.559Z,3.90
2018-09-27T20:49:44.961Z,3.43
2018-09-27T20:52:13.298Z,3.40
2018-09-27T20:54:41.648Z,3.80
2018-09-27T20:57:10.003Z,3.83
2018-09-27T20:59:38.363Z,3.40
2018-09-27T21:02:06.927Z,3.70
2018-09-27T21:04:35.296Z,3.60
2018-09-27T21:07:03.631Z,3.40
2018-09-27T21:09:32.007Z,3.27
2018-09-27T21:12:00.359Z,3.80
2018-09-27T21:14:28.748Z,3.33
2018-09-27T21:16:57.108Z,3.87
2018-09-27T21:19:25.496Z,4.00
2018-09-27T21:21:53.844Z,4.00
2018-09-27T21:24:22.206Z,3.80
2018-09-27T21:26:50.670Z,4.10
2018-09-27T21:29:19.031Z,4.03
2018-09-27T21:31:47.424Z,3.83
2018-09-27T21:34:15.847Z,4.03
2018-09-27T21:36:44.178Z,4.23
2018-09-27T21:39:12.560Z,4.93
2018-09-27T21:41:40.894Z,3.97
2018-09-27T21:44:09.259Z,4.30
2018-09-27T21:46:37.594Z,4.20
2018-09-27T21:49:06.173Z,4.13
2018-09-27T21:51:34.528Z,4.40
2018-09-27T21:54:02.909Z,4.03
2018-09-27T21:56:31.242Z,4.30
2018-09-27T21:58:59.600Z,4.70
2018-09-27T22:01:28.009Z,4.63
2018-09-27T22:03:56.363Z,5.00
2018-09-27T22:06:24.728Z,4.47
2018-09-27T22:08:53.166Z,4.87
2018-09-27T22:11:21.584Z,4.67
2018-09-27T22:13:50.035Z,4.53
2018-09-27T22:16:19.795Z,4.60
2018-09-27T22:18:48.183Z,5.17
2018-09-27T22:21:16.548Z,4.57
2018-09-27T22:23:44.984Z,4.93
2018-09-27T22:26:14.344Z,4.70
2018-09-27T22:28:42.693Z,5.07
2018-09-27T22:31:11.063Z,4.80
2018-09-27T22:33:39.428Z,4.73
2018-09-27T22:36:07.792Z,4.30
2018-09-27T22:38:36.180Z,5.20
2018-09-27T22:41:04.556Z,5.10
2018-09-27T22:43:32.936Z,4.70
2018-09-27T22:46:01.521Z,5.33
2018-09-27T22:48:29.864Z,4.50
2018-09-27T22:50:58.486Z,5.40
2018-09-27T22:53:26.824Z,4.80
2018-09-27T22:55:55.183Z,4.67
2018-09-27T22:58:23.549Z,4.60
2018-09-27T23:00:51.928Z,5.10
2018-09-27T23:03:20.389Z,5.77
2018-09-27T23:05:48.858Z,5.20
2018-09-27T23:08:17.216Z,5.90
2018-09-27T23:10:45.587Z,5.57
2018-09-27T23:13:13.971Z,5.37
2018-09-27T23:15:42.410Z,5.60
2018-09-27T23:18:10.770Z,4.87
2018-09-27T23:20:39.128Z,5.57
2018-09-27T23:23:07.559Z,6.30
2018-09-27T23:25:36.140Z,5.80
2018-09-27T23:28:04.495Z,5.73
2018-09-27T23:30:32.845Z,6.17
2018-09-27T23:33:01.205Z,5.80
2018-09-27T23:35:29.828Z,6.60
2018-09-27T23:37:58.556Z,5.97
2018-09-27T23:40:27.132Z,6.40
2018-09-27T23:42:55.626Z,6.27
2018-09-27T23:45:24.232Z,5.87
2018-09-27T23:47:52.793Z,6.73
2018-09-27T23:50:21.216Z,7.43
2018-09-27T23:52:49.853Z,6.67
2018-09-27T23:55:18.265Z,6.57
2018-09-27T23:57:46.827Z,6.43
